General Roca, Argentina
Current Conditions -  °F | °C
As of 12:00 AM on Wednesday 26 Nov 2014 (Local Time) from SAAR Reporting Station
Clear Clear  
Wind Chill: 17°   Ceiling: Unl
Heat Index: 17°   Visibility: 6mi
Dew Point: 13°   Wind: 3mph
Humidity: 77%   Direction: 110°ESE
Pressure: 29.91"   Gusts: NA
Location:  32.73°S, 61.92°W
Report Text: SAAR 260300Z 11003KT CAVOK 17/13 Q1013
Loading
Personal Weather Stations






























Interactive Weather Map New forecast layout! Learn more

10-Day Weather Forecast

Advertisements
Track Severe Weather on mobile